Time;durP1;ratioP1;P1;durP2;ratioP2;P2;SDS_P1;SDS_P2;PMS_P1;PMS_P2;Temp;Humidity;BMP_temperature;BMP_pressure;BME280_temperature;BME280_humidity;BME280_pressure;Samples;Min_cycle;Max_cycle;Signal;HPM_P1;HPM_P2
2022/03/14 00:01:12;;;;;;;30.65;15.65;;;13.50;40.70;;;;;;5023263;28;20057;-42
2022/03/14 00:03:45;;;;;;;21.92;13.90;;;13.40;40.90;;;;;;5020736;28;20057;-42
2022/03/14 00:06:13;;;;;;;21.58;13.88;;;13.40;41.10;;;;;;5022029;28;20053;-42
2022/03/14 00:08:44;;;;;;;20.42;12.82;;;13.40;41.20;;;;;;5024443;28;20417;-42
2022/03/14 00:11:16;;;;;;;21.70;12.75;;;13.40;41.40;;;;;;5020835;28;20049;-46
2022/03/14 00:13:46;;;;;;;16.05;11.00;;;13.30;41.80;;;;;;5021327;28;20501;-42
2022/03/14 00:16:22;;;;;;;18.80;11.55;;;13.30;42.00;;;;;;5021099;28;20064;-42
2022/03/14 00:18:51;;;;;;;19.15;11.55;;;13.30;42.30;;;;;;5021229;28;20061;-44
2022/03/14 00:21:23;;;;;;;18.30;11.50;;;13.20;42.50;;;;;;5022625;28;20057;-49
2022/03/14 00:23:51;;;;;;;19.27;12.73;;;13.20;42.40;;;;;;5022067;28;20406;-42
2022/03/14 00:26:19;;;;;;;19.73;12.10;;;13.20;42.60;;;;;;5020833;28;20057;-46
2022/03/14 00:28:47;;;;;;;20.52;12.35;;;13.20;42.80;;;;;;5022658;28;20064;-43
2022/03/14 00:31:15;;;;;;;18.13;11.48;;;13.20;42.80;;;;;;5020409;28;20091;-44
2022/03/14 00:33:43;;;;;;;19.23;12.10;;;13.20;43.10;;;;;;5021116;28;20065;-43
2022/03/14 00:36:11;;;;;;;18.42;11.57;;;13.10;43.10;;;;;;5022580;28;20049;-42
2022/03/14 00:38:40;;;;;;;23.45;13.40;;;13.10;43.20;;;;;;5023903;28;20061;-42
2022/03/14 00:41:08;;;;;;;20.73;13.38;;;13.10;43.10;;;;;;5022991;28;20072;-43
2022/03/14 00:43:37;;;;;;;20.42;12.32;;;13.10;42.80;;;;;;5021359;28;20402;-42
2022/03/14 00:46:05;;;;;;;20.40;13.43;;;13.10;42.70;;;;;;5019841;28;20068;-44
2022/03/14 00:48:34;;;;;;;23.05;14.02;;;13.10;42.70;;;;;;5021811;28;20056;-42
2022/03/14 00:51:02;;;;;;;21.98;13.88;;;13.10;43.00;;;;;;5018536;28;20064;-43
2022/03/14 00:53:31;;;;;;;23.40;14.02;;;13.00;43.10;;;;;;5022090;28;20060;-42
2022/03/14 00:55:59;;;;;;;21.63;13.50;;;13.00;43.10;;;;;;5020676;28;20405;-42
2022/03/14 00:58:27;;;;;;;23.30;14.13;;;13.00;43.00;;;;;;5022638;28;20104;-44
2022/03/14 01:00:54;;;;;;;22.10;13.80;;;13.00;43.10;;;;;;5019289;28;20057;-42
2022/03/14 01:03:22;;;;;;;21.15;14.10;;;12.90;43.10;;;;;;5022576;28;20053;-42
2022/03/14 01:05:49;;;;;;;21.85;13.32;;;12.90;43.30;;;;;;5018726;28;20049;-42
2022/03/14 01:08:17;;;;;;;23.65;14.82;;;13.00;43.70;;;;;;5022464;28;20753;-42
2022/03/14 01:10:47;;;;;;;23.13;13.68;;;12.90;44.10;;;;;;5019677;28;20057;-42
2022/03/14 01:13:15;;;;;;;21.50;12.25;;;12.90;44.50;;;;;;5023563;28;20064;-42
2022/03/14 01:15:42;;;;;;;16.17;9.93;;;12.90;44.70;;;;;;5017984;28;20052;-42
2022/03/14 01:18:10;;;;;;;18.00;10.35;;;12.90;45.00;;;;;;5021887;28;20049;-43
2022/03/14 01:20:37;;;;;;;13.25;8.82;;;12.90;45.40;;;;;;5021432;28;20057;-42
2022/03/14 01:23:05;;;;;;;20.55;11.73;;;12.90;45.70;;;;;;5023245;28;20049;-42
2022/03/14 01:25:32;;;;;;;19.10;11.43;;;12.80;46.10;;;;;;5018634;28;20072;-42
2022/03/14 01:28:02;;;;;;;17.90;11.55;;;12.80;46.60;;;;;;5022695;28;20068;-42
2022/03/14 01:30:30;;;;;;;19.70;11.75;;;12.80;46.70;;;;;;5017573;28;20049;-42
2022/03/14 01:32:58;;;;;;;18.45;10.70;;;12.80;46.60;;;;;;5022565;28;20061;-42
2022/03/14 01:35:26;;;;;;;17.08;10.35;;;12.80;46.50;;;;;;5018095;28;20042;-44
2022/03/14 01:37:54;;;;;;;18.80;11.82;;;12.70;46.60;;;;;;5021428;28;20076;-42
2022/03/14 01:40:22;;;;;;;19.33;11.43;;;12.80;46.80;;;;;;5021926;28;20064;-42
2022/03/14 01:42:50;;;;;;;20.92;11.77;;;12.80;47.20;;;;;;5020885;28;20058;-45
2022/03/14 01:45:20;;;;;;;17.70;11.73;;;12.80;47.30;;;;;;5018408;28;20053;-45
2022/03/14 01:47:48;;;;;;;15.60;10.40;;;12.70;47.60;;;;;;5021035;28;20057;-45
2022/03/14 01:50:16;;;;;;;14.00;8.93;;;12.70;47.70;;;;;;5018915;28;20060;-42
2022/03/14 01:52:44;;;;;;;17.60;10.10;;;12.70;47.80;;;;;;5022760;28;20061;-42
2022/03/14 01:55:13;;;;;;;14.45;9.55;;;12.70;48.30;;;;;;5019523;28;20061;-44
2022/03/14 01:57:41;;;;;;;19.60;11.55;;;12.70;48.40;;;;;;5021921;28;20959;-42
2022/03/14 02:00:13;;;;;;;20.85;12.77;;;12.70;48.50;;;;;;5020568;28;20057;-40
2022/03/14 02:02:42;;;;;;;16.52;11.05;;;12.70;48.80;;;;;;5020253;28;20058;-42
2022/03/14 02:05:11;;;;;;;15.57;10.18;;;12.70;48.80;;;;;;5017927;28;20045;-43
2022/03/14 02:07:39;;;;;;;15.80;9.75;;;12.60;48.70;;;;;;5021715;28;20080;-42
2022/03/14 02:10:08;;;;;;;14.95;9.15;;;12.60;48.90;;;;;;5020667;28;20056;-43
2022/03/14 02:12:35;;;;;;;19.25;8.63;;;12.60;49.30;;;;;;5022232;28;20049;-42
2022/03/14 02:15:03;;;;;;;16.00;9.10;;;12.60;49.50;;;;;;5019270;28;20616;-43
2022/03/14 02:17:30;;;;;;;15.52;9.65;;;12.60;49.50;;;;;;5020909;28;20493;-42
2022/03/14 02:20:01;;;;;;;19.02;9.65;;;12.60;49.50;;;;;;5020245;28;20076;-42
2022/03/14 02:22:28;;;;;;;16.77;10.82;;;12.60;50.40;;;;;;5020512;28;20413;-42
2022/03/14 02:24:56;;;;;;;22.88;11.32;;;12.60;50.00;;;;;;5016559;28;20076;-43
2022/03/14 02:27:24;;;;;;;16.23;9.50;;;12.60;50.60;;;;;;5017942;28;20112;-42
2022/03/14 02:29:51;;;;;;;17.80;9.90;;;12.50;50.60;;;;;;5015976;28;20064;-42
2022/03/14 02:32:19;;;;;;;17.05;9.13;;;12.50;50.80;;;;;;5020919;28;20061;-42
2022/03/14 02:34:46;;;;;;;13.85;8.18;;;12.50;51.00;;;;;;5018594;28;20069;-42
2022/03/14 02:37:15;;;;;;;14.15;7.78;;;12.50;51.00;;;;;;5018711;28;20046;-42
2022/03/14 02:39:43;;;;;;;12.80;8.02;;;12.50;51.40;;;;;;5017556;28;20401;-42
2022/03/14 02:42:11;;;;;;;13.30;8.38;;;12.50;51.30;;;;;;5022692;28;20053;-42
2022/03/14 02:44:42;;;;;;;14.85;9.15;;;12.50;51.40;;;;;;5023545;28;20068;-42
2022/03/14 02:47:09;;;;;;;15.32;9.93;;;12.40;51.50;;;;;;5023730;28;20049;-44
2022/03/14 02:49:38;;;;;;;16.90;10.35;;;12.50;51.60;;;;;;5021544;28;20421;-42
2022/03/14 02:52:06;;;;;;;16.02;10.63;;;12.40;51.70;;;;;;5023978;28;20064;-42
2022/03/14 02:54:35;;;;;;;14.95;9.95;;;12.40;51.80;;;;;;5024684;28;20053;-43
2022/03/14 02:57:04;;;;;;;19.45;10.40;;;12.40;51.90;;;;;;5024665;28;20060;-42
2022/03/14 02:59:32;;;;;;;18.05;11.52;;;12.40;52.10;;;;;;5021655;28;20056;-42
2022/03/14 03:01:59;;;;;;;21.38;11.40;;;12.40;52.00;;;;;;5024279;28;20064;-42
2022/03/14 03:04:27;;;;;;;16.63;10.55;;;12.40;52.30;;;;;;5021917;28;20053;-42
2022/03/14 03:06:54;;;;;;;14.50;9.40;;;12.40;52.30;;;;;;5023987;28;20045;-43
2022/03/14 03:09:22;;;;;;;15.55;9.35;;;12.30;52.30;;;;;;5020800;28;20053;-45
2022/03/14 03:11:52;;;;;;;19.23;10.63;;;12.40;52.40;;;;;;5024311;28;20505;-43
2022/03/14 03:14:20;;;;;;;16.75;9.48;;;12.30;52.70;;;;;;5021334;28;20045;-42
2022/03/14 03:16:47;;;;;;;17.55;9.48;;;12.30;52.60;;;;;;5023395;28;20053;-42
2022/03/14 03:19:15;;;;;;;17.85;9.88;;;12.40;52.80;;;;;;5022426;28;20060;-42
2022/03/14 03:21:42;;;;;;;13.40;8.75;;;12.30;53.10;;;;;;5024524;28;20517;-43
2022/03/14 03:24:12;;;;;;;13.30;7.68;;;12.30;53.30;;;;;;5021965;28;20053;-42
2022/03/14 03:26:40;;;;;;;15.93;8.35;;;12.30;53.30;;;;;;5023933;28;20425;-42
2022/03/14 03:29:10;;;;;;;12.27;7.05;;;12.30;53.50;;;;;;5022730;28;20417;-43
2022/03/14 03:31:38;;;;;;;13.48;7.22;;;12.30;53.80;;;;;;5022083;28;20057;-43
2022/03/14 03:34:06;;;;;;;12.77;6.93;;;12.30;53.80;;;;;;5021065;28;20394;-42
2022/03/14 03:36:33;;;;;;;10.52;6.47;;;12.30;53.80;;;;;;5024067;28;20433;-43
2022/03/14 03:39:01;;;;;;;12.73;7.25;;;12.20;53.90;;;;;;5023977;28;20050;-43
2022/03/14 03:41:29;;;;;;;8.35;5.30;;;12.20;54.10;;;;;;5023630;28;20053;-42
2022/03/14 03:43:56;;;;;;;7.85;5.50;;;12.20;54.20;;;;;;5021518;28;20537;-43
2022/03/14 03:46:26;;;;;;;7.50;4.88;;;12.20;54.20;;;;;;5021223;28;20049;-44
2022/03/14 03:48:53;;;;;;;6.38;4.43;;;12.20;54.50;;;;;;5018636;28;20064;-42
2022/03/14 03:51:21;;;;;;;6.63;4.28;;;12.20;54.50;;;;;;5021719;28;20072;-42
2022/03/14 03:53:48;;;;;;;6.95;4.03;;;12.30;54.80;;;;;;5021526;28;20057;-43
2022/03/14 03:56:16;;;;;;;5.57;3.15;;;12.30;55.10;;;;;;5023230;28;20049;-42
2022/03/14 03:58:44;;;;;;;4.93;3.13;;;12.30;55.10;;;;;;5020854;28;20068;-43
2022/03/14 04:01:12;;;;;;;4.38;2.85;;;12.20;55.00;;;;;;5022301;28;20661;-43
2022/03/14 04:03:41;;;;;;;4.90;2.95;;;12.30;55.10;;;;;;5022076;28;20057;-42
2022/03/14 04:06:08;;;;;;;3.83;2.80;;;12.30;55.20;;;;;;5023116;28;20049;-43
2022/03/14 04:08:36;;;;;;;4.20;3.03;;;12.30;55.20;;;;;;5021433;28;20053;-42
2022/03/14 04:11:04;;;;;;;4.70;2.67;;;12.30;55.20;;;;;;5022425;28;20495;-42
2022/03/14 04:13:32;;;;;;;5.32;2.85;;;12.30;55.40;;;;;;5022937;28;20057;-43
2022/03/14 04:16:00;;;;;;;3.65;2.78;;;12.30;55.60;;;;;;5022437;28;20580;-43
2022/03/14 04:18:27;;;;;;;3.03;2.35;;;12.30;55.80;;;;;;5021895;28;20573;-43
2022/03/14 04:20:57;;;;;;;5.97;2.38;;;12.30;55.60;;;;;;5023439;28;20057;-43
2022/03/14 04:23:24;;;;;;;5.10;2.80;;;12.30;55.70;;;;;;5021593;28;20053;-43
2022/03/14 04:25:52;;;;;;;4.35;2.33;;;12.30;55.70;;;;;;5021132;28;20057;-43
2022/03/14 04:28:19;;;;;;;5.63;2.05;;;12.30;55.70;;;;;;5021225;28;20046;-42
2022/03/14 04:30:47;;;;;;;2.22;1.80;;;12.30;55.70;;;;;;5021381;28;20061;-43
2022/03/14 04:33:14;;;;;;;3.28;2.13;;;12.30;55.80;;;;;;5023536;28;20458;-43
2022/03/14 04:35:42;;;;;;;2.50;2.00;;;12.40;55.80;;;;;;5020450;28;20064;-44
2022/03/14 04:38:11;;;;;;;4.00;2.30;;;12.40;55.90;;;;;;5022340;28;20204;-46
2022/03/14 04:40:39;;;;;;;3.65;2.00;;;12.40;56.20;;;;;;5022231;28;20053;-42
2022/03/14 04:43:08;;;;;;;5.35;1.40;;;12.30;56.00;;;;;;5021848;28;20053;-43
2022/03/14 04:45:36;;;;;;;4.50;1.50;;;12.30;55.90;;;;;;5018253;28;20061;-44
2022/03/14 04:48:05;;;;;;;2.20;1.50;;;12.40;55.90;;;;;;5019973;28;20053;-45
2022/03/14 04:50:33;;;;;;;3.03;1.88;;;12.30;55.80;;;;;;5017648;28;20052;-44
2022/03/14 04:53:00;;;;;;;2.05;1.58;;;12.40;56.00;;;;;;5020032;28;20572;-43
2022/03/14 04:55:29;;;;;;;2.60;1.40;;;12.40;56.00;;;;;;5020086;28;20506;-43
2022/03/14 04:57:56;;;;;;;2.25;1.58;;;12.40;56.10;;;;;;5016913;28;20045;-43
2022/03/14 05:00:24;;;;;;;4.20;1.65;;;12.40;56.00;;;;;;5019192;28;20064;-45
2022/03/14 05:02:52;;;;;;;1.58;1.13;;;12.30;56.10;;;;;;5022742;28;20061;-43
2022/03/14 05:05:19;;;;;;;1.10;1.00;;;12.30;56.00;;;;;;5017226;28;20045;-43
2022/03/14 05:07:47;;;;;;;2.13;1.25;;;12.40;56.00;;;;;;5020256;28;20433;-42
2022/03/14 05:10:14;;;;;;;2.13;1.10;;;12.40;56.20;;;;;;5021727;28;20053;-42
2022/03/14 05:12:43;;;;;;;1.35;0.90;;;12.30;56.10;;;;;;5022233;28;20050;-44
2022/03/14 05:15:11;;;;;;;3.72;1.50;;;12.30;56.10;;;;;;5022819;28;20072;-42
2022/03/14 05:17:38;;;;;;;2.95;1.45;;;12.30;56.00;;;;;;5001193;28;20438;-43
2022/03/14 05:20:06;;;;;;;2.78;1.30;;;12.30;56.10;;;;;;5012977;28;20418;-42
2022/03/14 05:22:35;;;;;;;1.70;1.20;;;12.30;56.20;;;;;;5016977;28;20054;-43
2022/03/14 05:25:03;;;;;;;1.42;1.05;;;12.30;56.20;;;;;;5022220;28;20068;-43
2022/03/14 05:27:30;;;;;;;1.15;0.82;;;12.30;56.20;;;;;;5021307;28;20059;-43
2022/03/14 05:29:59;;;;;;;3.45;1.63;;;12.30;56.30;;;;;;5019985;28;20056;-44
2022/03/14 05:32:27;;;;;;;2.20;1.27;;;12.30;56.50;;;;;;5021046;28;20121;-43
2022/03/14 05:34:54;;;;;;;2.45;1.67;;;12.20;56.50;;;;;;5017956;28;20057;-44
2022/03/14 05:37:22;;;;;;;1.77;1.40;;;12.20;56.40;;;;;;5022003;28;20049;-43
2022/03/14 05:39:50;;;;;;;2.25;1.30;;;12.30;56.70;;;;;;5017035;28;20057;-44
2022/03/14 05:42:18;;;;;;;3.25;1.50;;;12.20;56.60;;;;;;5019601;28;20065;-43
2022/03/14 05:44:45;;;;;;;2.15;1.40;;;12.20;56.70;;;;;;5019792;28;20058;-43
2022/03/14 05:47:14;;;;;;;2.60;1.65;;;12.20;56.70;;;;;;5018025;28;20058;-43
2022/03/14 05:49:42;;;;;;;2.42;1.90;;;12.20;56.80;;;;;;5017352;28;20050;-44
2022/03/14 05:52:09;;;;;;;1.95;1.52;;;12.20;56.70;;;;;;5021425;28;20497;-42
2022/03/14 05:54:37;;;;;;;2.08;1.67;;;12.20;56.70;;;;;;5022240;28;20061;-42
2022/03/14 05:57:05;;;;;;;2.45;1.60;;;12.20;56.70;;;;;;5022245;28;20068;-44
2022/03/14 05:59:32;;;;;;;1.70;1.58;;;12.20;56.80;;;;;;5020561;28;20049;-42
2022/03/14 06:02:00;;;;;;;8.32;3.92;;;12.20;56.80;;;;;;5021228;28;20057;-43
2022/03/14 06:04:29;;;;;;;6.68;3.72;;;12.20;56.80;;;;;;5016276;28;20417;-43
2022/03/14 06:06:57;;;;;;;5.32;2.72;;;12.20;56.80;;;;;;5016029;28;20053;-43
2022/03/14 06:09:25;;;;;;;3.08;2.38;;;12.20;56.80;;;;;;5021045;28;20061;-43
2022/03/14 06:11:53;;;;;;;3.30;2.30;;;12.20;56.80;;;;;;5022084;28;20496;-43
2022/03/14 06:14:20;;;;;;;3.40;2.00;;;12.20;57.00;;;;;;5021158;28;20060;-43
2022/03/14 06:16:48;;;;;;;3.38;2.30;;;12.20;56.90;;;;;;5023309;28;20053;-43
2022/03/14 06:19:15;;;;;;;3.42;2.20;;;12.20;57.00;;;;;;5024793;28;20068;-43
2022/03/14 06:21:44;;;;;;;2.88;2.03;;;12.20;57.10;;;;;;5026059;28;20061;-43
2022/03/14 06:24:12;;;;;;;4.13;2.03;;;12.20;57.10;;;;;;5025368;28;20049;-44
2022/03/14 06:26:40;;;;;;;4.57;2.28;;;12.20;57.10;;;;;;5025121;28;20064;-43
2022/03/14 06:29:08;;;;;;;5.65;2.33;;;12.20;57.20;;;;;;5022524;28;20045;-43
2022/03/14 06:31:35;;;;;;;2.90;2.10;;;12.20;57.10;;;;;;5024617;28;20049;-43
2022/03/14 06:34:03;;;;;;;4.65;2.40;;;12.20;57.10;;;;;;5020806;28;20385;-42
2022/03/14 06:36:30;;;;;;;4.18;2.55;;;12.20;57.20;;;;;;5025592;28;20080;-43
2022/03/14 06:38:59;;;;;;;3.00;2.22;;;12.20;57.30;;;;;;5025301;28;20060;-43
2022/03/14 06:41:27;;;;;;;3.38;2.38;;;12.30;57.40;;;;;;5024537;28;20050;-44
2022/03/14 06:43:56;;;;;;;3.90;2.40;;;12.20;57.20;;;;;;5018253;28;23023;-43
2022/03/14 06:46:24;;;;;;;3.70;2.30;;;12.20;57.20;;;;;;5023635;28;20554;-44
2022/03/14 06:48:53;;;;;;;3.67;2.40;;;12.30;57.30;;;;;;5022602;28;20056;-42
2022/03/14 06:51:22;;;;;;;4.18;2.63;;;12.30;57.30;;;;;;5026006;28;20054;-43
2022/03/14 06:53:49;;;;;;;3.80;2.28;;;12.30;57.30;;;;;;5024822;28;20421;-43
2022/03/14 06:56:19;;;;;;;4.32;1.90;;;12.30;57.40;;;;;;5024919;28;20053;-42
2022/03/14 06:58:47;;;;;;;4.68;1.83;;;12.30;57.50;;;;;;5023225;28;20054;-42
2022/03/14 07:01:15;;;;;;;3.25;1.95;;;12.30;57.50;;;;;;5025072;28;20065;-45
2022/03/14 07:03:42;;;;;;;3.17;2.05;;;12.30;57.70;;;;;;5022590;28;20057;-44
2022/03/14 07:06:10;;;;;;;3.22;1.83;;;12.30;57.60;;;;;;5024674;28;20053;-43
2022/03/14 07:08:38;;;;;;;4.70;2.10;;;12.30;57.70;;;;;;5024809;28;20442;-43
2022/03/14 07:11:05;;;;;;;3.33;1.60;;;12.30;58.10;;;;;;5024872;28;20069;-42
2022/03/14 07:13:35;;;;;;;2.72;1.50;;;12.30;57.70;;;;;;5024396;28;20065;-43
2022/03/14 07:16:02;;;;;;;4.20;1.98;;;12.30;57.90;;;;;;5023775;28;20516;-43
2022/03/14 07:18:30;;;;;;;3.88;1.80;;;12.40;57.90;;;;;;5023710;28;20057;-45
2022/03/14 07:20:58;;;;;;;3.85;1.90;;;12.30;57.90;;;;;;5024823;28;20498;-43
2022/03/14 07:23:25;;;;;;;4.22;1.55;;;12.40;58.00;;;;;;5024599;28;20445;-46
2022/03/14 07:25:53;;;;;;;3.53;1.88;;;12.40;58.00;;;;;;5023925;28;20053;-42
2022/03/14 07:28:22;;;;;;;3.58;1.30;;;12.40;58.00;;;;;;5022424;28;20057;-43
2022/03/14 07:30:51;;;;;;;2.30;1.25;;;12.50;58.10;;;;;;5023984;28;20057;-43
2022/03/14 07:33:19;;;;;;;4.82;1.67;;;12.50;58.10;;;;;;5023990;28;20054;-43
2022/03/14 07:35:46;;;;;;;2.92;1.45;;;12.50;58.10;;;;;;5023077;28;20049;-43
2022/03/14 07:38:14;;;;;;;2.67;1.40;;;12.50;58.00;;;;;;5025380;28;20057;-45
2022/03/14 07:40:42;;;;;;;2.70;1.48;;;12.60;57.80;;;;;;5025370;28;20061;-43
2022/03/14 07:43:10;;;;;;;2.17;1.40;;;12.60;57.60;;;;;;5025195;28;20549;-43
2022/03/14 07:45:37;;;;;;;1.42;0.93;;;12.70;57.40;;;;;;5019497;28;20429;-44
2022/03/14 07:48:07;;;;;;;3.58;1.58;;;12.70;57.20;;;;;;5019511;28;20045;-43
2022/03/14 07:50:35;;;;;;;2.35;1.20;;;12.70;57.20;;;;;;5023844;28;20722;-43
2022/03/14 07:53:03;;;;;;;3.63;1.17;;;12.70;57.20;;;;;;5022838;28;20057;-43
2022/03/14 07:55:31;;;;;;;2.67;1.50;;;12.70;57.30;;;;;;5020619;28;20049;-43
2022/03/14 07:57:58;;;;;;;3.88;1.55;;;12.70;57.30;;;;;;5022026;28;20061;-43
2022/03/14 08:00:26;;;;;;;3.55;1.23;;;12.70;57.50;;;;;;5022682;28;20053;-43
2022/03/14 08:02:54;;;;;;;4.45;1.45;;;12.80;57.50;;;;;;5021286;28;20249;-43
2022/03/14 08:05:26;;;;;;;5.47;1.63;;;12.80;57.60;;;;;;5019099;28;20045;-43
2022/03/14 08:07:55;;;;;;;4.10;1.52;;;12.80;57.80;;;;;;5020929;28;20061;-43
2022/03/14 08:10:23;;;;;;;3.05;1.30;;;12.80;57.90;;;;;;5022638;28;20052;-43
2022/03/14 08:12:52;;;;;;;3.38;1.40;;;12.90;58.00;;;;;;5023402;28;20072;-44
2022/03/14 08:15:22;;;;;;;4.57;1.48;;;13.00;58.00;;;;;;5017995;28;20060;-43
2022/03/14 08:17:50;;;;;;;5.45;1.73;;;13.00;57.90;;;;;;5022766;28;20062;-43
2022/03/14 08:20:19;;;;;;;6.10;1.38;;;13.00;57.90;;;;;;5020521;28;20053;-43
2022/03/14 08:22:48;;;;;;;3.58;1.42;;;13.10;57.80;;;;;;5019058;28;20067;-42
2022/03/14 08:25:16;;;;;;;2.97;1.48;;;13.10;57.60;;;;;;5021975;28;20054;-44
2022/03/14 08:27:43;;;;;;;4.25;1.30;;;13.20;57.30;;;;;;5020858;28;20560;-43
2022/03/14 08:30:11;;;;;;;4.70;1.65;;;13.20;57.20;;;;;;5023498;28;20053;-42
2022/03/14 08:32:40;;;;;;;6.03;1.88;;;13.20;57.10;;;;;;5022396;28;20057;-43
2022/03/14 08:35:09;;;;;;;5.47;1.65;;;13.20;56.90;;;;;;5020463;28;20053;-43
2022/03/14 08:37:38;;;;;;;5.78;1.60;;;13.30;56.50;;;;;;5021699;28;20053;-43
2022/03/14 08:40:09;;;;;;;5.45;1.80;;;13.20;56.30;;;;;;5022843;28;20060;-43
2022/03/14 08:42:37;;;;;;;3.53;1.48;;;13.30;56.10;;;;;;5016110;28;20068;-43
2022/03/14 08:45:06;;;;;;;7.18;2.38;;;13.30;56.00;;;;;;5020871;28;20065;-43
2022/03/14 08:47:34;;;;;;;5.45;1.75;;;13.30;56.20;;;;;;5020933;28;20410;-44
2022/03/14 08:50:02;;;;;;;6.30;1.60;;;13.30;56.20;;;;;;5017531;28;20049;-42
2022/03/14 08:52:30;;;;;;;6.70;3.15;;;13.40;56.20;;;;;;5019805;28;20685;-42
2022/03/14 08:54:57;;;;;;;7.47;2.17;;;13.40;56.00;;;;;;5019989;28;20053;-42
2022/03/14 08:57:27;;;;;;;5.45;1.60;;;13.40;56.00;;;;;;5020871;28;20056;-42
2022/03/14 08:59:55;;;;;;;2.97;1.40;;;13.40;55.80;;;;;;5019407;28;20061;-43
2022/03/14 09:02:23;;;;;;;5.32;1.90;;;13.50;55.60;;;;;;5019885;28;20421;-42
2022/03/14 09:04:50;;;;;;;5.72;1.70;;;13.50;55.50;;;;;;5019143;28;20053;-43
2022/03/14 09:07:25;;;;;;;3.72;1.40;;;13.60;55.40;;;;;;5017116;28;20049;-43
2022/03/14 09:09:53;;;;;;;4.55;1.48;;;13.60;55.30;;;;;;5021545;28;20045;-45
2022/03/14 09:12:21;;;;;;;3.10;1.30;;;13.60;55.20;;;;;;5021855;28;20049;-43
2022/03/14 09:14:50;;;;;;;4.10;1.73;;;13.70;55.10;;;;;;5019647;28;20057;-43
2022/03/14 09:17:18;;;;;;;40.60;20.30;;;13.70;54.90;;;;;;5022406;28;20064;-43
2022/03/14 09:19:45;;;;;;;16.67;7.93;;;13.70;54.80;;;;;;5018583;28;20061;-43
2022/03/14 09:22:13;;;;;;;6.32;3.47;;;13.70;54.70;;;;;;5020994;28;20057;-43
2022/03/14 09:24:40;;;;;;;5.97;2.35;;;13.70;54.60;;;;;;5018938;28;20060;-43
2022/03/14 09:27:09;;;;;;;6.70;2.28;;;13.80;54.50;;;;;;5021840;28;20053;-42
2022/03/14 09:29:36;;;;;;;6.35;1.90;;;13.80;54.40;;;;;;5021949;28;20045;-44
2022/03/14 09:32:06;;;;;;;5.78;1.40;;;13.90;54.50;;;;;;5021702;28;20057;-45
2022/03/14 09:34:36;;;;;;;3.28;1.65;;;13.80;54.20;;;;;;5019372;28;20056;-43
2022/03/14 09:37:04;;;;;;;3.72;1.30;;;13.90;54.20;;;;;;5022202;28;20056;-45
2022/03/14 09:39:34;;;;;;;6.15;2.10;;;13.90;54.20;;;;;;5021577;28;20060;-43
2022/03/14 09:42:04;;;;;;;6.72;1.70;;;13.90;54.20;;;;;;5019906;28;20497;-44
2022/03/14 09:44:31;;;;;;;5.55;1.52;;;14.00;54.20;;;;;;5019355;28;20054;-45
2022/03/14 09:47:02;;;;;;;4.75;1.50;;;14.10;54.20;;;;;;5017259;28;20049;-43
2022/03/14 09:49:34;;;;;;;4.82;1.33;;;14.10;54.20;;;;;;5017489;28;20046;-42
2022/03/14 09:52:03;;;;;;;2.20;1.30;;;14.10;54.00;;;;;;5016131;28;20065;-44
2022/03/14 09:54:30;;;;;;;2.30;1.10;;;14.20;54.00;;;;;;5021407;28;20060;-43
2022/03/14 09:57:01;;;;;;;3.00;1.00;;;14.20;53.60;;;;;;5025239;28;20068;-42
2022/03/14 09:59:29;;;;;;;2.83;1.17;;;14.30;53.30;;;;;;5025200;28;20057;-43
2022/03/14 10:01:57;;;;;;;6.07;1.25;;;14.30;53.00;;;;;;5023893;28;20053;-43
2022/03/14 10:04:24;;;;;;;3.53;1.17;;;14.30;52.90;;;;;;5022724;28;20049;-43
2022/03/14 10:06:53;;;;;;;3.35;1.45;;;14.40;53.20;;;;;;5026104;28;20049;-43
2022/03/14 10:09:21;;;;;;;4.82;1.17;;;14.40;52.60;;;;;;5022945;28;20398;-44
2022/03/14 10:11:49;;;;;;;5.03;2.67;;;14.40;52.40;;;;;;5022868;28;20053;-43
2022/03/14 10:14:19;;;;;;;2.92;1.48;;;14.40;52.20;;;;;;5020979;28;20060;-43
2022/03/14 10:16:47;;;;;;;3.50;1.00;;;14.40;51.90;;;;;;5023871;28;20053;-43
2022/03/14 10:19:20;;;;;;;1.88;0.80;;;14.40;52.00;;;;;;5023978;28;20390;-43
2022/03/14 10:21:50;;;;;;;2.17;1.10;;;14.40;51.80;;;;;;5026718;28;20065;-43
2022/03/14 10:24:23;;;;;;;2.53;1.38;;;14.40;51.40;;;;;;5022217;28;20057;-42
2022/03/14 10:26:51;;;;;;;1.90;1.02;;;14.40;51.30;;;;;;5024380;28;20078;-43
2022/03/14 10:29:21;;;;;;;2.67;1.40;;;14.40;51.50;;;;;;5022899;28;20497;-45
2022/03/14 10:31:54;;;;;;;3.35;1.30;;;14.40;51.20;;;;;;5022653;28;20060;-43
2022/03/14 10:34:22;;;;;;;2.65;1.30;;;14.50;51.30;;;;;;5019795;28;20049;-43
2022/03/14 10:36:51;;;;;;;1.92;1.30;;;14.50;51.10;;;;;;5020960;28;20417;-43
2022/03/14 10:39:22;;;;;;;1.63;1.15;;;14.50;50.80;;;;;;5025460;28;20056;-42
2022/03/14 10:42:05;;;;;;;3.03;1.23;;;14.50;50.40;;;;;;5022850;28;20057;-46
2022/03/14 10:44:33;;;;;;;5.03;3.20;;;14.50;50.20;;;;;;5023662;28;20057;-43
2022/03/14 10:47:03;;;;;;;6.65;2.90;;;14.60;50.20;;;;;;5020512;28;20064;-44
2022/03/14 10:49:33;;;;;;;10.05;4.88;;;14.50;50.10;;;;;;5023789;28;20056;-43
2022/03/14 10:52:02;;;;;;;3.13;1.60;;;14.60;49.70;;;;;;5020682;28;20053;-43
2022/03/14 10:54:35;;;;;;;1.38;0.68;;;14.60;49.60;;;;;;5021374;28;20068;-45
2022/03/14 10:57:04;;;;;;;2.08;0.80;;;14.60;49.80;;;;;;5020755;28;20064;-43
2022/03/14 10:59:40;;;;;;;2.13;0.50;;;14.50;49.30;;;;;;5023462;28;20046;-46
2022/03/14 11:02:09;;;;;;;3.10;0.93;;;14.60;49.40;;;;;;5018029;28;20053;-43
2022/03/14 11:04:44;;;;;;;2.88;0.65;;;14.60;49.40;;;;;;5020642;28;20552;-45
2022/03/14 11:07:11;;;;;;;3.17;1.35;;;14.60;49.10;;;;;;5024776;28;20124;-48
2022/03/14 11:09:45;;;;;;;0.98;0.70;;;14.60;48.90;;;;;;5023768;28;20049;-43
2022/03/14 11:12:14;;;;;;;2.88;0.90;;;14.70;48.70;;;;;;5023189;28;20417;-44
2022/03/14 11:14:42;;;;;;;1.88;0.63;;;14.80;48.70;;;;;;5017776;28;20057;-44
2022/03/14 11:17:15;;;;;;;2.13;0.80;;;14.80;48.70;;;;;;5020570;28;20049;-43
2022/03/14 11:19:43;;;;;;;1.08;0.80;;;14.80;48.50;;;;;;5019939;28;20719;-44
2022/03/14 11:22:12;;;;;;;2.30;0.52;;;14.80;48.30;;;;;;5023972;28;20058;-44
2022/03/14 11:24:42;;;;;;;2.20;0.80;;;14.90;48.30;;;;;;5023273;28;20080;-43
2022/03/14 11:27:19;;;;;;;2.45;1.00;;;14.90;48.20;;;;;;5024976;28;20819;-43
2022/03/14 11:29:47;;;;;;;4.13;0.93;;;14.90;48.20;;;;;;5022550;28;20421;-44
2022/03/14 11:32:17;;;;;;;1.33;0.80;;;15.00;48.30;;;;;;5021969;28;20064;-43
2022/03/14 11:34:46;;;;;;;0.93;0.60;;;15.00;48.30;;;;;;5017644;28;20068;-46
2022/03/14 11:37:14;;;;;;;1.73;0.70;;;15.10;48.60;;;;;;5020543;28;20064;-42
2022/03/14 11:39:43;;;;;;;0.65;0.50;;;15.10;48.90;;;;;;5023021;28;20049;-46
2022/03/14 11:42:13;;;;;;;2.55;0.60;;;15.20;49.10;;;;;;5022691;28;20068;-42
2022/03/14 11:44:41;;;;;;;0.98;0.60;;;15.20;48.90;;;;;;5023099;28;20053;-42
2022/03/14 11:47:11;;;;;;;1.13;0.80;;;15.30;48.20;;;;;;5024062;28;20433;-42
2022/03/14 11:49:39;;;;;;;1.52;0.70;;;15.40;48.10;;;;;;5020240;28;20064;-42
2022/03/14 11:52:10;;;;;;;2.20;0.75;;;15.50;47.50;;;;;;5023607;28;20054;-42
2022/03/14 11:54:40;;;;;;;1.85;0.80;;;15.60;47.20;;;;;;5022126;28;20053;-43
2022/03/14 11:57:08;;;;;;;2.25;0.73;;;15.60;46.80;;;;;;5023427;28;20057;-42
2022/03/14 11:59:38;;;;;;;5.47;1.35;;;15.70;46.60;;;;;;5024015;28;20068;-42
2022/03/14 12:02:07;;;;;;;2.50;1.10;;;15.70;46.60;;;;;;5024193;28;20743;-43
2022/03/14 12:04:37;;;;;;;4.78;1.00;;;15.70;45.90;;;;;;5020934;28;20056;-43
2022/03/14 12:07:07;;;;;;;2.25;1.23;;;15.70;45.50;;;;;;5023944;28;20060;-42
2022/03/14 12:09:48;;;;;;;2.22;1.00;;;15.70;45.50;;;;;;5024614;28;20056;-43
2022/03/14 12:12:32;;;;;;;2.80;0.85;;;15.80;45.40;;;;;;5024024;28;20068;-42
2022/03/14 12:15:01;;;;;;;2.15;0.85;;;15.70;45.00;;;;;;5018868;28;20045;-43
2022/03/14 12:17:31;;;;;;;2.78;1.48;;;15.80;45.00;;;;;;5023003;28;20056;-46
2022/03/14 12:20:01;;;;;;;3.90;2.88;;;15.80;44.90;;;;;;5022329;28;20064;-43
2022/03/14 12:22:49;;;;;;;2.03;1.27;;;15.80;45.40;;;;;;5023561;28;20057;-43
2022/03/14 12:25:42;;;;;;;4.85;1.33;;;15.70;45.70;;;;;;5015942;28;20054;-42
2022/03/14 12:28:26;;;;;;;2.75;1.08;;;15.70;45.90;;;;;;5023920;28;20068;-43
2022/03/14 12:30:58;;;;;;;;;;;15.70;45.90;;;;;;5024135;28;20057;-45
2022/03/14 12:33:34;;;;;;;3.28;1.00;;;15.80;46.10;;;;;;5021426;28;19947;-43
2022/03/14 12:36:35;;;;;;;2.53;1.55;;;15.70;46.00;;;;;;5023017;28;20061;-43
2022/03/14 12:39:22;;;;;;;3.38;1.20;;;15.70;45.70;;;;;;5023739;28;20061;-43
2022/03/14 12:41:50;;;;;;;7.22;1.13;;;15.70;45.70;;;;;;5022077;28;20498;-42
2022/03/14 12:44:19;;;;;;;3.85;1.83;;;15.70;45.60;;;;;;5020853;28;20429;-42
2022/03/14 12:46:50;;;;;;;2.25;1.10;;;15.60;45.50;;;;;;5023143;28;20061;-42
2022/03/14 12:49:49;;;;;;;2.80;0.90;;;15.70;45.60;;;;;;5022085;28;20072;-42
2022/03/14 12:52:17;;;;;;;2.22;1.13;;;15.70;45.50;;;;;;5022136;28;20076;-43